sensor_id;sensor_type;location;lat;lon;timestamp;P1;durP1;ratioP1;P2;durP2;ratioP2
4911;SDS011;2471;47.056;8.350;2023-09-08T00:00:06;14.93;;;13.43;;
4911;SDS011;2471;47.056;8.350;2023-09-08T00:02:34;15.07;;;13.53;;
4911;SDS011;2471;47.056;8.350;2023-09-08T00:05:00;18.67;;;14.10;;
4911;SDS011;2471;47.056;8.350;2023-09-08T00:07:25;15.80;;;14.10;;
4911;SDS011;2471;47.056;8.350;2023-09-08T00:09:51;16.50;;;14.73;;
4911;SDS011;2471;47.056;8.350;2023-09-08T00:12:17;16.97;;;15.20;;
4911;SDS011;2471;47.056;8.350;2023-09-08T00:14:43;17.10;;;15.27;;
4911;SDS011;2471;47.056;8.350;2023-09-08T00:17:09;17.50;;;15.43;;
4911;SDS011;2471;47.056;8.350;2023-09-08T00:19:35;17.17;;;15.37;;
4911;SDS011;2471;47.056;8.350;2023-09-08T00:22:01;18.20;;;15.53;;
4911;SDS011;2471;47.056;8.350;2023-09-08T00:24:28;17.13;;;15.40;;
4911;SDS011;2471;47.056;8.350;2023-09-08T00:26:54;15.70;;;14.10;;
4911;SDS011;2471;47.056;8.350;2023-09-08T00:29:20;19.20;;;17.20;;
4911;SDS011;2471;47.056;8.350;2023-09-08T00:31:46;15.73;;;13.83;;
4911;SDS011;2471;47.056;8.350;2023-09-08T00:34:12;19.07;;;17.20;;
4911;SDS011;2471;47.056;8.350;2023-09-08T00:36:37;20.43;;;15.70;;
4911;SDS011;2471;47.056;8.350;2023-09-08T00:39:03;16.53;;;14.80;;
4911;SDS011;2471;47.056;8.350;2023-09-08T00:41:29;14.70;;;13.20;;
4911;SDS011;2471;47.056;8.350;2023-09-08T00:43:55;18.53;;;14.77;;
4911;SDS011;2471;47.056;8.350;2023-09-08T00:46:21;16.40;;;14.20;;
4911;SDS011;2471;47.056;8.350;2023-09-08T00:48:48;18.60;;;15.10;;
4911;SDS011;2471;47.056;8.350;2023-09-08T00:51:14;15.63;;;14.13;;
4911;SDS011;2471;47.056;8.350;2023-09-08T00:53:40;23.60;;;15.40;;
4911;SDS011;2471;47.056;8.350;2023-09-08T00:56:06;17.50;;;15.73;;
4911;SDS011;2471;47.056;8.350;2023-09-08T00:58:36;18.83;;;16.83;;
4911;SDS011;2471;47.056;8.350;2023-09-08T01:01:02;16.63;;;14.03;;
4911;SDS011;2471;47.056;8.350;2023-09-08T01:03:29;15.30;;;13.90;;
4911;SDS011;2471;47.056;8.350;2023-09-08T01:05:55;17.07;;;13.87;;
4911;SDS011;2471;47.056;8.350;2023-09-08T01:08:21;16.40;;;14.70;;
4911;SDS011;2471;47.056;8.350;2023-09-08T01:10:47;17.20;;;15.50;;
4911;SDS011;2471;47.056;8.350;2023-09-08T01:13:13;17.80;;;15.07;;
4911;SDS011;2471;47.056;8.350;2023-09-08T01:15:39;26.03;;;14.67;;
4911;SDS011;2471;47.056;8.350;2023-09-08T01:18:05;16.53;;;14.80;;
4911;SDS011;2471;47.056;8.350;2023-09-08T01:21:13;16.97;;;15.30;;
4911;SDS011;2471;47.056;8.350;2023-09-08T01:24:29;16.37;;;14.77;;
4911;SDS011;2471;47.056;8.350;2023-09-08T01:26:17;18.20;;;13.97;;
4911;SDS011;2471;47.056;8.350;2023-09-08T01:28:43;15.97;;;14.27;;
4911;SDS011;2471;47.056;8.350;2023-09-08T01:31:10;17.40;;;15.60;;
4911;SDS011;2471;47.056;8.350;2023-09-08T01:33:37;16.40;;;14.90;;
4911;SDS011;2471;47.056;8.350;2023-09-08T01:36:03;16.07;;;14.37;;
4911;SDS011;2471;47.056;8.350;2023-09-08T01:38:29;17.60;;;15.77;;
4911;SDS011;2471;47.056;8.350;2023-09-08T01:40:55;18.20;;;16.27;;
4911;SDS011;2471;47.056;8.350;2023-09-08T01:43:21;23.40;;;16.40;;
4911;SDS011;2471;47.056;8.350;2023-09-08T01:45:47;17.30;;;15.43;;
4911;SDS011;2471;47.056;8.350;2023-09-08T01:48:13;19.10;;;17.30;;
4911;SDS011;2471;47.056;8.350;2023-09-08T01:50:39;19.37;;;16.90;;
4911;SDS011;2471;47.056;8.350;2023-09-08T01:53:05;19.10;;;17.10;;
4911;SDS011;2471;47.056;8.350;2023-09-08T01:55:31;22.10;;;16.90;;
4911;SDS011;2471;47.056;8.350;2023-09-08T01:57:57;19.77;;;15.83;;
4911;SDS011;2471;47.056;8.350;2023-09-08T02:00:22;17.47;;;15.37;;
4911;SDS011;2471;47.056;8.350;2023-09-08T02:02:49;17.93;;;15.90;;
4911;SDS011;2471;47.056;8.350;2023-09-08T02:05:15;16.77;;;15.03;;
4911;SDS011;2471;47.056;8.350;2023-09-08T02:07:41;17.30;;;15.60;;
4911;SDS011;2471;47.056;8.350;2023-09-08T02:10:07;17.97;;;16.07;;
4911;SDS011;2471;47.056;8.350;2023-09-08T02:12:33;19.47;;;16.70;;
4911;SDS011;2471;47.056;8.350;2023-09-08T02:14:59;19.50;;;16.93;;
4911;SDS011;2471;47.056;8.350;2023-09-08T02:17:25;18.20;;;16.30;;
4911;SDS011;2471;47.056;8.350;2023-09-08T02:19:51;17.40;;;14.43;;
4911;SDS011;2471;47.056;8.350;2023-09-08T02:22:17;18.40;;;16.20;;
4911;SDS011;2471;47.056;8.350;2023-09-08T02:24:43;17.87;;;15.97;;
4911;SDS011;2471;47.056;8.350;2023-09-08T02:27:09;18.67;;;16.00;;
4911;SDS011;2471;47.056;8.350;2023-09-08T02:29:35;15.70;;;14.07;;
4911;SDS011;2471;47.056;8.350;2023-09-08T02:32:01;17.30;;;15.57;;
4911;SDS011;2471;47.056;8.350;2023-09-08T02:34:27;17.23;;;15.50;;
4911;SDS011;2471;47.056;8.350;2023-09-08T02:36:53;23.10;;;16.77;;
4911;SDS011;2471;47.056;8.350;2023-09-08T02:39:19;18.47;;;15.97;;
4911;SDS011;2471;47.056;8.350;2023-09-08T02:41:45;22.43;;;15.97;;
4911;SDS011;2471;47.056;8.350;2023-09-08T02:44:11;17.57;;;15.77;;
4911;SDS011;2471;47.056;8.350;2023-09-08T02:46:37;21.93;;;16.97;;
4911;SDS011;2471;47.056;8.350;2023-09-08T02:49:03;18.83;;;16.50;;
4911;SDS011;2471;47.056;8.350;2023-09-08T02:51:29;20.00;;;17.03;;
4911;SDS011;2471;47.056;8.350;2023-09-08T02:53:55;18.63;;;16.60;;
4911;SDS011;2471;47.056;8.350;2023-09-08T02:56:21;18.23;;;16.43;;
4911;SDS011;2471;47.056;8.350;2023-09-08T02:58:47;24.00;;;18.50;;
4911;SDS011;2471;47.056;8.350;2023-09-08T03:01:13;20.90;;;18.13;;
4911;SDS011;2471;47.056;8.350;2023-09-08T03:03:42;19.30;;;17.37;;
4911;SDS011;2471;47.056;8.350;2023-09-08T03:06:09;20.83;;;16.33;;
4911;SDS011;2471;47.056;8.350;2023-09-08T03:08:35;18.77;;;16.80;;
4911;SDS011;2471;47.056;8.350;2023-09-08T03:11:04;20.03;;;17.20;;
4911;SDS011;2471;47.056;8.350;2023-09-08T03:13:31;20.63;;;18.30;;
4911;SDS011;2471;47.056;8.350;2023-09-08T03:16:01;21.07;;;18.77;;
4911;SDS011;2471;47.056;8.350;2023-09-08T03:18:27;27.23;;;20.70;;
4911;SDS011;2471;47.056;8.350;2023-09-08T03:20:53;35.43;;;29.87;;
4911;SDS011;2471;47.056;8.350;2023-09-08T03:23:19;20.00;;;17.97;;
4911;SDS011;2471;47.056;8.350;2023-09-08T03:25:45;19.30;;;17.47;;
4911;SDS011;2471;47.056;8.350;2023-09-08T03:28:11;18.40;;;15.67;;
4911;SDS011;2471;47.056;8.350;2023-09-08T03:30:37;19.90;;;15.90;;
4911;SDS011;2471;47.056;8.350;2023-09-08T03:33:03;18.07;;;16.23;;
4911;SDS011;2471;47.056;8.350;2023-09-08T03:35:29;19.77;;;17.67;;
4911;SDS011;2471;47.056;8.350;2023-09-08T03:37:55;18.37;;;16.50;;
4911;SDS011;2471;47.056;8.350;2023-09-08T03:40:21;37.63;;;28.17;;
4911;SDS011;2471;47.056;8.350;2023-09-08T03:42:47;20.37;;;18.20;;
4911;SDS011;2471;47.056;8.350;2023-09-08T03:45:13;20.83;;;18.20;;
4911;SDS011;2471;47.056;8.350;2023-09-08T03:47:39;29.60;;;24.23;;
4911;SDS011;2471;47.056;8.350;2023-09-08T03:50:05;24.60;;;21.20;;
4911;SDS011;2471;47.056;8.350;2023-09-08T03:52:31;18.77;;;16.77;;
4911;SDS011;2471;47.056;8.350;2023-09-08T03:54:57;21.57;;;19.30;;
4911;SDS011;2471;47.056;8.350;2023-09-08T03:57:23;18.50;;;16.10;;
4911;SDS011;2471;47.056;8.350;2023-09-08T03:59:49;22.53;;;16.30;;
4911;SDS011;2471;47.056;8.350;2023-09-08T04:02:15;19.90;;;17.90;;
4911;SDS011;2471;47.056;8.350;2023-09-08T04:04:41;20.50;;;17.30;;
4911;SDS011;2471;47.056;8.350;2023-09-08T04:07:07;20.40;;;17.63;;
4911;SDS011;2471;47.056;8.350;2023-09-08T04:09:33;20.30;;;17.90;;
4911;SDS011;2471;47.056;8.350;2023-09-08T04:11:59;17.90;;;16.17;;
4911;SDS011;2471;47.056;8.350;2023-09-08T04:14:25;18.40;;;16.40;;
4911;SDS011;2471;47.056;8.350;2023-09-08T04:16:53;18.80;;;17.00;;
4911;SDS011;2471;47.056;8.350;2023-09-08T04:19:19;21.07;;;18.87;;
4911;SDS011;2471;47.056;8.350;2023-09-08T04:21:45;22.60;;;18.50;;
4911;SDS011;2471;47.056;8.350;2023-09-08T04:24:11;20.50;;;18.30;;
4911;SDS011;2471;47.056;8.350;2023-09-08T04:26:37;20.47;;;18.33;;
4911;SDS011;2471;47.056;8.350;2023-09-08T04:29:03;27.43;;;19.60;;
4911;SDS011;2471;47.056;8.350;2023-09-08T04:31:29;22.03;;;19.57;;
4911;SDS011;2471;47.056;8.350;2023-09-08T04:33:55;26.50;;;20.57;;
4911;SDS011;2471;47.056;8.350;2023-09-08T04:36:21;28.30;;;24.20;;
4911;SDS011;2471;47.056;8.350;2023-09-08T04:38:47;39.63;;;30.93;;
4911;SDS011;2471;47.056;8.350;2023-09-08T04:41:13;19.13;;;17.13;;
4911;SDS011;2471;47.056;8.350;2023-09-08T04:43:38;34.90;;;28.93;;
4911;SDS011;2471;47.056;8.350;2023-09-08T04:46:04;25.67;;;20.80;;
4911;SDS011;2471;47.056;8.350;2023-09-08T04:48:30;21.20;;;17.73;;
4911;SDS011;2471;47.056;8.350;2023-09-08T04:50:57;25.10;;;20.43;;
4911;SDS011;2471;47.056;8.350;2023-09-08T04:53:23;22.67;;;20.30;;
4911;SDS011;2471;47.056;8.350;2023-09-08T04:55:48;20.93;;;18.73;;
4911;SDS011;2471;47.056;8.350;2023-09-08T04:58:15;20.43;;;17.57;;
4911;SDS011;2471;47.056;8.350;2023-09-08T05:00:41;21.10;;;18.90;;
4911;SDS011;2471;47.056;8.350;2023-09-08T05:03:06;21.40;;;19.20;;
4911;SDS011;2471;47.056;8.350;2023-09-08T05:05:32;24.43;;;21.70;;
4911;SDS011;2471;47.056;8.350;2023-09-08T05:07:58;31.10;;;26.10;;
4911;SDS011;2471;47.056;8.350;2023-09-08T05:10:24;27.13;;;22.77;;
4911;SDS011;2471;47.056;8.350;2023-09-08T05:12:51;24.40;;;21.80;;
4911;SDS011;2471;47.056;8.350;2023-09-08T05:15:17;24.83;;;22.23;;
4911;SDS011;2471;47.056;8.350;2023-09-08T05:17:45;25.23;;;22.53;;
4911;SDS011;2471;47.056;8.350;2023-09-08T05:20:12;22.60;;;19.03;;
4911;SDS011;2471;47.056;8.350;2023-09-08T05:22:38;24.40;;;21.90;;
4911;SDS011;2471;47.056;8.350;2023-09-08T05:25:04;25.80;;;22.10;;
4911;SDS011;2471;47.056;8.350;2023-09-08T05:27:30;22.50;;;18.03;;
4911;SDS011;2471;47.056;8.350;2023-09-08T05:29:56;23.63;;;20.30;;
4911;SDS011;2471;47.056;8.350;2023-09-08T05:32:23;43.53;;;34.23;;
4911;SDS011;2471;47.056;8.350;2023-09-08T05:34:49;24.07;;;21.20;;
4911;SDS011;2471;47.056;8.350;2023-09-08T05:37:15;22.17;;;19.67;;
4911;SDS011;2471;47.056;8.350;2023-09-08T05:39:41;35.77;;;29.10;;
4911;SDS011;2471;47.056;8.350;2023-09-08T05:42:07;28.20;;;24.17;;
4911;SDS011;2471;47.056;8.350;2023-09-08T05:44:33;22.00;;;19.80;;
4911;SDS011;2471;47.056;8.350;2023-09-08T05:46:59;23.00;;;20.70;;
4911;SDS011;2471;47.056;8.350;2023-09-08T05:49:25;22.53;;;20.13;;
4911;SDS011;2471;47.056;8.350;2023-09-08T05:51:51;21.97;;;19.50;;
4911;SDS011;2471;47.056;8.350;2023-09-08T05:54:17;23.87;;;21.27;;
4911;SDS011;2471;47.056;8.350;2023-09-08T05:56:43;23.23;;;19.40;;
4911;SDS011;2471;47.056;8.350;2023-09-08T05:59:09;37.27;;;29.10;;
4911;SDS011;2471;47.056;8.350;2023-09-08T06:01:35;18.60;;;16.90;;
4911;SDS011;2471;47.056;8.350;2023-09-08T06:04:02;19.87;;;16.37;;
4911;SDS011;2471;47.056;8.350;2023-09-08T06:06:28;21.63;;;16.47;;
4911;SDS011;2471;47.056;8.350;2023-09-08T06:08:54;20.10;;;18.17;;
4911;SDS011;2471;47.056;8.350;2023-09-08T06:11:20;23.40;;;16.80;;
4911;SDS011;2471;47.056;8.350;2023-09-08T06:13:46;22.07;;;17.60;;
4911;SDS011;2471;47.056;8.350;2023-09-08T06:16:12;17.87;;;15.90;;
4911;SDS011;2471;47.056;8.350;2023-09-08T06:18:38;19.83;;;17.73;;
4911;SDS011;2471;47.056;8.350;2023-09-08T06:21:09;16.80;;;15.20;;
4911;SDS011;2471;47.056;8.350;2023-09-08T06:23:35;17.37;;;15.47;;
4911;SDS011;2471;47.056;8.350;2023-09-08T06:26:01;20.47;;;17.00;;
4911;SDS011;2471;47.056;8.350;2023-09-08T06:28:27;18.30;;;16.60;;
4911;SDS011;2471;47.056;8.350;2023-09-08T06:30:54;17.07;;;15.23;;
4911;SDS011;2471;47.056;8.350;2023-09-08T06:33:20;19.03;;;17.13;;
4911;SDS011;2471;47.056;8.350;2023-09-08T06:35:47;13.17;;;11.80;;
4911;SDS011;2471;47.056;8.350;2023-09-08T06:38:13;14.90;;;13.40;;
4911;SDS011;2471;47.056;8.350;2023-09-08T06:40:39;20.57;;;17.87;;
4911;SDS011;2471;47.056;8.350;2023-09-08T06:43:05;27.87;;;23.50;;
4911;SDS011;2471;47.056;8.350;2023-09-08T06:45:31;18.57;;;16.77;;
4911;SDS011;2471;47.056;8.350;2023-09-08T06:47:57;18.07;;;16.17;;
4911;SDS011;2471;47.056;8.350;2023-09-08T06:50:24;30.00;;;26.50;;
4911;SDS011;2471;47.056;8.350;2023-09-08T06:52:51;14.00;;;12.70;;
4911;SDS011;2471;47.056;8.350;2023-09-08T06:55:17;13.93;;;12.53;;
4911;SDS011;2471;47.056;8.350;2023-09-08T06:57:44;13.33;;;11.93;;
4911;SDS011;2471;47.056;8.350;2023-09-08T07:00:10;15.87;;;12.77;;
4911;SDS011;2471;47.056;8.350;2023-09-08T07:02:37;15.63;;;14.13;;
4911;SDS011;2471;47.056;8.350;2023-09-08T07:05:03;18.30;;;15.30;;
4911;SDS011;2471;47.056;8.350;2023-09-08T07:07:33;20.30;;;16.73;;
4911;SDS011;2471;47.056;8.350;2023-09-08T07:09:59;35.80;;;24.93;;
4911;SDS011;2471;47.056;8.350;2023-09-08T07:12:25;23.63;;;17.40;;
4911;SDS011;2471;47.056;8.350;2023-09-08T07:14:51;18.17;;;16.40;;
4911;SDS011;2471;47.056;8.350;2023-09-08T07:17:17;20.20;;;17.57;;
4911;SDS011;2471;47.056;8.350;2023-09-08T07:19:43;21.50;;;19.20;;
4911;SDS011;2471;47.056;8.350;2023-09-08T07:22:09;16.97;;;14.97;;
4911;SDS011;2471;47.056;8.350;2023-09-08T07:24:34;20.57;;;17.50;;
4911;SDS011;2471;47.056;8.350;2023-09-08T07:27:00;24.07;;;16.00;;
4911;SDS011;2471;47.056;8.350;2023-09-08T07:29:27;17.07;;;15.27;;
4911;SDS011;2471;47.056;8.350;2023-09-08T07:31:53;22.47;;;15.97;;
4911;SDS011;2471;47.056;8.350;2023-09-08T07:34:19;30.83;;;26.10;;
4911;SDS011;2471;47.056;8.350;2023-09-08T07:36:45;26.50;;;22.90;;
4911;SDS011;2471;47.056;8.350;2023-09-08T07:39:11;29.53;;;24.93;;
4911;SDS011;2471;47.056;8.350;2023-09-08T07:41:37;23.17;;;20.50;;
4911;SDS011;2471;47.056;8.350;2023-09-08T07:44:05;21.57;;;18.77;;
4911;SDS011;2471;47.056;8.350;2023-09-08T07:46:31;24.93;;;20.40;;
4911;SDS011;2471;47.056;8.350;2023-09-08T07:49:00;23.57;;;19.83;;
4911;SDS011;2471;47.056;8.350;2023-09-08T07:51:26;29.93;;;26.70;;
4911;SDS011;2471;47.056;8.350;2023-09-08T07:53:52;34.33;;;30.23;;
4911;SDS011;2471;47.056;8.350;2023-09-08T07:56:19;28.10;;;24.10;;
4911;SDS011;2471;47.056;8.350;2023-09-08T07:58:45;33.47;;;29.73;;
4911;SDS011;2471;47.056;8.350;2023-09-08T08:01:12;28.47;;;25.37;;
4911;SDS011;2471;47.056;8.350;2023-09-08T08:03:38;27.70;;;24.23;;
4911;SDS011;2471;47.056;8.350;2023-09-08T08:06:04;31.27;;;27.00;;
4911;SDS011;2471;47.056;8.350;2023-09-08T08:08:31;26.87;;;21.07;;
4911;SDS011;2471;47.056;8.350;2023-09-08T08:10:57;47.77;;;38.17;;
4911;SDS011;2471;47.056;8.350;2023-09-08T08:13:23;34.17;;;27.67;;
4911;SDS011;2471;47.056;8.350;2023-09-08T08:15:49;43.57;;;36.60;;
4911;SDS011;2471;47.056;8.350;2023-09-08T08:18:15;30.77;;;25.63;;
4911;SDS011;2471;47.056;8.350;2023-09-08T08:20:41;42.77;;;34.47;;
4911;SDS011;2471;47.056;8.350;2023-09-08T08:23:07;36.20;;;29.80;;
4911;SDS011;2471;47.056;8.350;2023-09-08T08:25:33;30.70;;;26.07;;
4911;SDS011;2471;47.056;8.350;2023-09-08T08:27:59;28.10;;;24.30;;
4911;SDS011;2471;47.056;8.350;2023-09-08T08:30:26;25.83;;;23.17;;
4911;SDS011;2471;47.056;8.350;2023-09-08T08:32:52;33.37;;;29.83;;
4911;SDS011;2471;47.056;8.350;2023-09-08T08:35:19;25.73;;;23.10;;
4911;SDS011;2471;47.056;8.350;2023-09-08T08:37:45;39.00;;;32.57;;
4911;SDS011;2471;47.056;8.350;2023-09-08T08:40:11;43.07;;;38.03;;
4911;SDS011;2471;47.056;8.350;2023-09-08T08:42:37;43.40;;;38.90;;
4911;SDS011;2471;47.056;8.350;2023-09-08T08:45:04;29.70;;;26.70;;
4911;SDS011;2471;47.056;8.350;2023-09-08T08:47:30;28.33;;;25.33;;
4911;SDS011;2471;47.056;8.350;2023-09-08T08:49:57;30.37;;;27.27;;
4911;SDS011;2471;47.056;8.350;2023-09-08T08:52:24;29.77;;;26.87;;
4911;SDS011;2471;47.056;8.350;2023-09-08T08:54:51;35.90;;;32.20;;
4911;SDS011;2471;47.056;8.350;2023-09-08T08:57:17;28.07;;;25.20;;
4911;SDS011;2471;47.056;8.350;2023-09-08T08:59:43;27.73;;;24.80;;
4911;SDS011;2471;47.056;8.350;2023-09-08T09:02:12;25.00;;;22.60;;
4911;SDS011;2471;47.056;8.350;2023-09-08T09:04:39;19.33;;;16.45;;
4911;SDS011;2471;47.056;8.350;2023-09-08T09:07:07;17.90;;;16.20;;
4911;SDS011;2471;47.056;8.350;2023-09-08T09:09:33;23.77;;;21.75;;
4911;SDS011;2471;47.056;8.350;2023-09-08T09:12:00;23.67;;;21.27;;
4911;SDS011;2471;47.056;8.350;2023-09-08T09:14:32;32.50;;;29.42;;
4911;SDS011;2471;47.056;8.350;2023-09-08T09:17:02;46.97;;;42.30;;
4911;SDS011;2471;47.056;8.350;2023-09-08T09:19:30;45.15;;;40.28;;
4911;SDS011;2471;47.056;8.350;2023-09-08T09:22:06;71.85;;;62.95;;
4911;SDS011;2471;47.056;8.350;2023-09-08T09:27:15;65.53;;;58.67;;
4911;SDS011;2471;47.056;8.350;2023-09-08T09:29:45;54.65;;;49.20;;
4911;SDS011;2471;47.056;8.350;2023-09-08T09:32:15;35.15;;;31.65;;
4911;SDS011;2471;47.056;8.350;2023-09-08T09:34:49;68.45;;;61.47;;
4911;SDS011;2471;47.056;8.350;2023-09-08T09:37:16;74.35;;;66.90;;
4911;SDS011;2471;47.056;8.350;2023-09-08T09:39:42;36.05;;;32.17;;
4911;SDS011;2471;47.056;8.350;2023-09-08T09:42:11;39.78;;;35.85;;
4911;SDS011;2471;47.056;8.350;2023-09-08T09:44:38;77.60;;;69.68;;
4911;SDS011;2471;47.056;8.350;2023-09-08T09:47:06;121.07;;;109.35;;
4911;SDS011;2471;47.056;8.350;2023-09-08T09:49:41;74.80;;;66.72;;
4911;SDS011;2471;47.056;8.350;2023-09-08T09:52:07;106.78;;;95.60;;
4911;SDS011;2471;47.056;8.350;2023-09-08T09:54:34;91.80;;;81.75;;
4911;SDS011;2471;47.056;8.350;2023-09-08T09:57:02;63.75;;;56.90;;
4911;SDS011;2471;47.056;8.350;2023-09-08T09:59:29;90.47;;;81.00;;
4911;SDS011;2471;47.056;8.350;2023-09-08T10:04:32;49.13;;;43.77;;
4911;SDS011;2471;47.056;8.350;2023-09-08T10:06:58;54.93;;;45.60;;
4911;SDS011;2471;47.056;8.350;2023-09-08T10:09:28;117.00;;;103.90;;
4911;SDS011;2471;47.056;8.350;2023-09-08T10:11:54;110.43;;;94.17;;
4911;SDS011;2471;47.056;8.350;2023-09-08T10:14:22;66.57;;;54.97;;
4911;SDS011;2471;47.056;8.350;2023-09-08T10:16:52;92.57;;;75.47;;
4911;SDS011;2471;47.056;8.350;2023-09-08T10:19:22;83.97;;;64.57;;
4911;SDS011;2471;47.056;8.350;2023-09-08T10:21:54;85.63;;;73.53;;
4911;SDS011;2471;47.056;8.350;2023-09-08T10:24:21;71.80;;;56.77;;
4911;SDS011;2471;47.056;8.350;2023-09-08T10:26:53;43.80;;;37.23;;
4911;SDS011;2471;47.056;8.350;2023-09-08T10:29:22;80.43;;;65.87;;
4911;SDS011;2471;47.056;8.350;2023-09-08T10:31:48;49.37;;;40.77;;
4911;SDS011;2471;47.056;8.350;2023-09-08T10:34:20;124.47;;;105.33;;
4911;SDS011;2471;47.056;8.350;2023-09-08T10:36:46;46.87;;;38.27;;
4911;SDS011;2471;47.056;8.350;2023-09-08T10:39:36;28.93;;;22.93;;
4911;SDS011;2471;47.056;8.350;2023-09-08T10:47:30;71.23;;;56.80;;
4911;SDS011;2471;47.056;8.350;2023-09-08T10:50:01;68.20;;;54.40;;
4911;SDS011;2471;47.056;8.350;2023-09-08T10:52:33;208.87;;;174.70;;
4911;SDS011;2471;47.056;8.350;2023-09-08T10:55:02;84.37;;;66.57;;
4911;SDS011;2471;47.056;8.350;2023-09-08T10:57:31;55.13;;;42.80;;
4911;SDS011;2471;47.056;8.350;2023-09-08T11:00:00;84.63;;;68.53;;
4911;SDS011;2471;47.056;8.350;2023-09-08T11:02:42;118.43;;;90.03;;
4911;SDS011;2471;47.056;8.350;2023-09-08T11:05:12;66.07;;;55.27;;
4911;SDS011;2471;47.056;8.350;2023-09-08T11:07:39;60.03;;;48.50;;
4911;SDS011;2471;47.056;8.350;2023-09-08T11:10:09;63.00;;;49.57;;
4911;SDS011;2471;47.056;8.350;2023-09-08T11:12:38;16.53;;;13.87;;
4911;SDS011;2471;47.056;8.350;2023-09-08T11:15:05;110.53;;;93.30;;
4911;SDS011;2471;47.056;8.350;2023-09-08T11:17:33;108.73;;;85.70;;
4911;SDS011;2471;47.056;8.350;2023-09-08T11:20:00;115.40;;;92.60;;
4911;SDS011;2471;47.056;8.350;2023-09-08T11:22:27;110.13;;;89.33;;
4911;SDS011;2471;47.056;8.350;2023-09-08T11:24:56;52.50;;;40.90;;
4911;SDS011;2471;47.056;8.350;2023-09-08T11:27:23;101.97;;;79.83;;
4911;SDS011;2471;47.056;8.350;2023-09-08T11:29:52;207.97;;;158.67;;
4911;SDS011;2471;47.056;8.350;2023-09-08T11:32:24;56.10;;;43.33;;
4911;SDS011;2471;47.056;8.350;2023-09-08T11:34:54;114.63;;;88.10;;
4911;SDS011;2471;47.056;8.350;2023-09-08T11:37:23;95.13;;;75.27;;
4911;SDS011;2471;47.056;8.350;2023-09-08T11:39:49;73.03;;;58.13;;
4911;SDS011;2471;47.056;8.350;2023-09-08T11:42:15;68.07;;;47.87;;
4911;SDS011;2471;47.056;8.350;2023-09-08T11:44:42;137.30;;;108.27;;
4911;SDS011;2471;47.056;8.350;2023-09-08T11:47:12;106.30;;;81.53;;
4911;SDS011;2471;47.056;8.350;2023-09-08T11:49:39;85.97;;;66.63;;
4911;SDS011;2471;47.056;8.350;2023-09-08T11:52:11;129.33;;;102.40;;
4911;SDS011;2471;47.056;8.350;2023-09-08T11:54:43;122.83;;;91.13;;
4911;SDS011;2471;47.056;8.350;2023-09-08T11:57:29;85.07;;;65.47;;
4911;SDS011;2471;47.056;8.350;2023-09-08T11:59:58;79.67;;;63.13;;
4911;SDS011;2471;47.056;8.350;2023-09-08T12:02:26;27.17;;;19.60;;
4911;SDS011;2471;47.056;8.350;2023-09-08T12:04:53;36.83;;;29.03;;
4911;SDS011;2471;47.056;8.350;2023-09-08T12:07:21;145.67;;;109.80;;
4911;SDS011;2471;47.056;8.350;2023-09-08T12:09:52;105.13;;;80.73;;
4911;SDS011;2471;47.056;8.350;2023-09-08T12:12:24;87.93;;;65.97;;
4911;SDS011;2471;47.056;8.350;2023-09-08T12:14:54;37.47;;;28.97;;
4911;SDS011;2471;47.056;8.350;2023-09-08T12:17:22;59.60;;;48.97;;
4911;SDS011;2471;47.056;8.350;2023-09-08T12:19:59;98.47;;;76.47;;
4911;SDS011;2471;47.056;8.350;2023-09-08T12:22:33;98.97;;;77.43;;
4911;SDS011;2471;47.056;8.350;2023-09-08T12:25:02;68.67;;;53.17;;
4911;SDS011;2471;47.056;8.350;2023-09-08T12:27:35;117.03;;;87.40;;
4911;SDS011;2471;47.056;8.350;2023-09-08T12:30:05;121.77;;;96.20;;
4911;SDS011;2471;47.056;8.350;2023-09-08T12:32:33;18.47;;;16.50;;
4911;SDS011;2471;47.056;8.350;2023-09-08T12:35:02;55.77;;;46.00;;
4911;SDS011;2471;47.056;8.350;2023-09-08T12:37:34;89.30;;;69.60;;
4911;SDS011;2471;47.056;8.350;2023-09-08T12:40:02;89.30;;;72.50;;
4911;SDS011;2471;47.056;8.350;2023-09-08T12:42:30;27.37;;;21.77;;
4911;SDS011;2471;47.056;8.350;2023-09-08T12:45:03;16.13;;;13.00;;
4911;SDS011;2471;47.056;8.350;2023-09-08T12:47:32;56.33;;;45.07;;
4911;SDS011;2471;47.056;8.350;2023-09-08T12:49:58;35.57;;;27.03;;
4911;SDS011;2471;47.056;8.350;2023-09-08T12:52:27;56.07;;;44.97;;
4911;SDS011;2471;47.056;8.350;2023-09-08T12:54:53;58.97;;;46.33;;
4911;SDS011;2471;47.056;8.350;2023-09-08T12:57:19;53.23;;;40.33;;
4911;SDS011;2471;47.056;8.350;2023-09-08T12:59:45;77.00;;;58.10;;
4911;SDS011;2471;47.056;8.350;2023-09-08T13:02:11;29.87;;;24.30;;
4911;SDS011;2471;47.056;8.350;2023-09-08T13:04:37;32.33;;;24.77;;
4911;SDS011;2471;47.056;8.350;2023-09-08T13:07:03;140.50;;;110.63;;
4911;SDS011;2471;47.056;8.350;2023-09-08T13:09:29;146.67;;;116.10;;
4911;SDS011;2471;47.056;8.350;2023-09-08T13:11:55;19.80;;;15.30;;
4911;SDS011;2471;47.056;8.350;2023-09-08T13:14:21;116.10;;;89.03;;
4911;SDS011;2471;47.056;8.350;2023-09-08T13:16:47;40.73;;;34.50;;
4911;SDS011;2471;47.056;8.350;2023-09-08T13:19:13;41.60;;;33.00;;
4911;SDS011;2471;47.056;8.350;2023-09-08T13:21:39;63.80;;;50.43;;
4911;SDS011;2471;47.056;8.350;2023-09-08T13:24:05;26.10;;;20.23;;
4911;SDS011;2471;47.056;8.350;2023-09-08T13:26:32;27.50;;;21.63;;
4911;SDS011;2471;47.056;8.350;2023-09-08T13:28:58;77.47;;;53.63;;
4911;SDS011;2471;47.056;8.350;2023-09-08T13:31:24;26.67;;;22.13;;
4911;SDS011;2471;47.056;8.350;2023-09-08T13:33:50;44.10;;;35.80;;
4911;SDS011;2471;47.056;8.350;2023-09-08T13:36:16;49.67;;;39.60;;
4911;SDS011;2471;47.056;8.350;2023-09-08T13:38:42;28.83;;;24.27;;
4911;SDS011;2471;47.056;8.350;2023-09-08T13:41:08;54.63;;;43.93;;
4911;SDS011;2471;47.056;8.350;2023-09-08T13:43:34;19.80;;;13.20;;
4911;SDS011;2471;47.056;8.350;2023-09-08T13:46:00;33.70;;;26.07;;
4911;SDS011;2471;47.056;8.350;2023-09-08T13:48:26;16.10;;;11.43;;
4911;SDS011;2471;47.056;8.350;2023-09-08T13:50:51;76.90;;;63.87;;
4911;SDS011;2471;47.056;8.350;2023-09-08T13:53:18;45.53;;;36.30;;
4911;SDS011;2471;47.056;8.350;2023-09-08T13:55:44;76.93;;;59.07;;
4911;SDS011;2471;47.056;8.350;2023-09-08T13:58:10;88.87;;;70.90;;
4911;SDS011;2471;47.056;8.350;2023-09-08T14:00:37;91.20;;;71.03;;
4911;SDS011;2471;47.056;8.350;2023-09-08T14:03:03;86.87;;;69.47;;
4911;SDS011;2471;47.056;8.350;2023-09-08T14:05:29;47.83;;;37.37;;
4911;SDS011;2471;47.056;8.350;2023-09-08T14:07:55;74.87;;;57.63;;
4911;SDS011;2471;47.056;8.350;2023-09-08T14:10:21;16.30;;;14.23;;
4911;SDS011;2471;47.056;8.350;2023-09-08T14:12:48;33.33;;;24.77;;
4911;SDS011;2471;47.056;8.350;2023-09-08T14:15:14;83.77;;;66.63;;
4911;SDS011;2471;47.056;8.350;2023-09-08T14:17:40;56.07;;;45.07;;
4911;SDS011;2471;47.056;8.350;2023-09-08T14:20:06;58.17;;;48.07;;
4911;SDS011;2471;47.056;8.350;2023-09-08T14:22:32;56.13;;;47.87;;
4911;SDS011;2471;47.056;8.350;2023-09-08T14:24:58;18.43;;;16.27;;
4911;SDS011;2471;47.056;8.350;2023-09-08T14:27:24;128.97;;;101.73;;
4911;SDS011;2471;47.056;8.350;2023-09-08T14:29:50;63.03;;;49.23;;
4911;SDS011;2471;47.056;8.350;2023-09-08T14:32:17;92.30;;;70.37;;
4911;SDS011;2471;47.056;8.350;2023-09-08T14:34:43;94.43;;;73.60;;
4911;SDS011;2471;47.056;8.350;2023-09-08T14:37:09;79.40;;;63.50;;
4911;SDS011;2471;47.056;8.350;2023-09-08T14:39:35;17.43;;;13.33;;
4911;SDS011;2471;47.056;8.350;2023-09-08T14:42:01;37.10;;;24.67;;
4911;SDS011;2471;47.056;8.350;2023-09-08T14:44:27;49.33;;;34.83;;
4911;SDS011;2471;47.056;8.350;2023-09-08T14:46:53;13.30;;;11.93;;
4911;SDS011;2471;47.056;8.350;2023-09-08T14:49:19;101.27;;;73.03;;
4911;SDS011;2471;47.056;8.350;2023-09-08T14:51:45;36.87;;;27.83;;
4911;SDS011;2471;47.056;8.350;2023-09-08T14:54:11;74.73;;;58.70;;